sensor_id;sensor_type;location;lat;lon;timestamp;temperature;humidity
75210;DHT22;63796;53.136;14.882;2024-02-14T00:01:05;5.70;99.90
75210;DHT22;63796;53.136;14.882;2024-02-14T00:04:12;5.60;99.90
75210;DHT22;63796;53.136;14.882;2024-02-14T00:07:20;5.60;99.90
75210;DHT22;63796;53.136;14.882;2024-02-14T00:10:28;5.60;99.90
75210;DHT22;63796;53.136;14.882;2024-02-14T00:13:35;5.40;99.90
75210;DHT22;63796;53.136;14.882;2024-02-14T00:16:42;5.40;99.90
75210;DHT22;63796;53.136;14.882;2024-02-14T00:19:50;5.30;99.90
75210;DHT22;63796;53.136;14.882;2024-02-14T00:22:57;4.90;99.90
75210;DHT22;63796;53.136;14.882;2024-02-14T00:26:05;5.00;99.90
75210;DHT22;63796;53.136;14.882;2024-02-14T00:29:12;4.80;99.90
75210;DHT22;63796;53.136;14.882;2024-02-14T00:32:20;4.70;99.90
75210;DHT22;63796;53.136;14.882;2024-02-14T00:35:27;4.50;99.90
75210;DHT22;63796;53.136;14.882;2024-02-14T00:38:39;4.50;99.90
75210;DHT22;63796;53.136;14.882;2024-02-14T00:41:47;4.40;99.90
75210;DHT22;63796;53.136;14.882;2024-02-14T00:44:54;4.40;99.90
75210;DHT22;63796;53.136;14.882;2024-02-14T00:48:01;4.30;99.90
75210;DHT22;63796;53.136;14.882;2024-02-14T00:51:09;4.20;99.90
75210;DHT22;63796;53.136;14.882;2024-02-14T00:54:16;4.20;99.90
75210;DHT22;63796;53.136;14.882;2024-02-14T00:57:25;4.30;99.90
75210;DHT22;63796;53.136;14.882;2024-02-14T01:00:33;4.20;99.90
75210;DHT22;63796;53.136;14.882;2024-02-14T01:03:40;4.10;99.90
75210;DHT22;63796;53.136;14.882;2024-02-14T01:06:48;4.10;99.90
75210;DHT22;63796;53.136;14.882;2024-02-14T01:09:45;4.10;99.90
75210;DHT22;63796;53.136;14.882;2024-02-14T01:12:52;4.10;99.90
75210;DHT22;63796;53.136;14.882;2024-02-14T01:16:00;4.20;99.90
75210;DHT22;63796;53.136;14.882;2024-02-14T01:19:07;4.20;99.90
75210;DHT22;63796;53.136;14.882;2024-02-14T01:22:15;4.20;99.90
75210;DHT22;63796;53.136;14.882;2024-02-14T01:25:22;4.20;99.90
75210;DHT22;63796;53.136;14.882;2024-02-14T01:28:30;4.40;99.90
75210;DHT22;63796;53.136;14.882;2024-02-14T01:31:37;4.30;99.90
75210;DHT22;63796;53.136;14.882;2024-02-14T01:34:44;4.40;99.90
75210;DHT22;63796;53.136;14.882;2024-02-14T01:37:51;4.30;99.90
75210;DHT22;63796;53.136;14.882;2024-02-14T01:40:59;4.20;99.90
75210;DHT22;63796;53.136;14.882;2024-02-14T01:44:06;4.30;99.90
75210;DHT22;63796;53.136;14.882;2024-02-14T01:47:13;4.10;99.90
75210;DHT22;63796;53.136;14.882;2024-02-14T01:50:21;4.10;99.90
75210;DHT22;63796;53.136;14.882;2024-02-14T01:53:29;4.10;99.90
75210;DHT22;63796;53.136;14.882;2024-02-14T01:56:37;3.90;99.90
75210;DHT22;63796;53.136;14.882;2024-02-14T01:59:45;3.90;99.90
75210;DHT22;63796;53.136;14.882;2024-02-14T02:02:53;3.90;99.90
75210;DHT22;63796;53.136;14.882;2024-02-14T02:06:01;3.80;99.90
75210;DHT22;63796;53.136;14.882;2024-02-14T02:09:09;3.90;99.90
75210;DHT22;63796;53.136;14.882;2024-02-14T02:12:16;3.90;99.90
75210;DHT22;63796;53.136;14.882;2024-02-14T02:15:19;3.90;99.90
75210;DHT22;63796;53.136;14.882;2024-02-14T02:17:46;3.90;99.90
75210;DHT22;63796;53.136;14.882;2024-02-14T02:20:54;3.80;99.90
75210;DHT22;63796;53.136;14.882;2024-02-14T02:24:04;3.90;99.90
75210;DHT22;63796;53.136;14.882;2024-02-14T02:27:11;3.90;99.90
75210;DHT22;63796;53.136;14.882;2024-02-14T02:30:19;3.70;99.90
75210;DHT22;63796;53.136;14.882;2024-02-14T02:33:14;3.80;99.90
75210;DHT22;63796;53.136;14.882;2024-02-14T02:36:22;3.70;99.90
75210;DHT22;63796;53.136;14.882;2024-02-14T02:39:30;3.70;99.90
75210;DHT22;63796;53.136;14.882;2024-02-14T02:42:37;3.70;99.90
75210;DHT22;63796;53.136;14.882;2024-02-14T02:45:45;3.70;99.90
75210;DHT22;63796;53.136;14.882;2024-02-14T02:48:52;3.70;99.90
75210;DHT22;63796;53.136;14.882;2024-02-14T02:51:59;3.70;99.90
75210;DHT22;63796;53.136;14.882;2024-02-14T02:55:09;3.70;99.90
75210;DHT22;63796;53.136;14.882;2024-02-14T02:58:16;3.70;99.90
75210;DHT22;63796;53.136;14.882;2024-02-14T03:01:24;3.60;99.90
75210;DHT22;63796;53.136;14.882;2024-02-14T03:04:31;3.60;99.90
75210;DHT22;63796;53.136;14.882;2024-02-14T03:07:39;3.60;99.90
75210;DHT22;63796;53.136;14.882;2024-02-14T03:10:46;3.50;99.90
75210;DHT22;63796;53.136;14.882;2024-02-14T03:13:54;3.50;99.90
75210;DHT22;63796;53.136;14.882;2024-02-14T03:17:02;3.50;99.90
75210;DHT22;63796;53.136;14.882;2024-02-14T03:20:10;3.50;99.90
75210;DHT22;63796;53.136;14.882;2024-02-14T03:23:21;3.50;99.90
75210;DHT22;63796;53.136;14.882;2024-02-14T03:26:29;3.40;99.90
75210;DHT22;63796;53.136;14.882;2024-02-14T03:29:36;3.40;99.90
75210;DHT22;63796;53.136;14.882;2024-02-14T03:32:44;3.40;99.90
75210;DHT22;63796;53.136;14.882;2024-02-14T03:35:51;3.40;99.90
75210;DHT22;63796;53.136;14.882;2024-02-14T03:38:59;3.30;99.90
75210;DHT22;63796;53.136;14.882;2024-02-14T03:42:07;3.20;99.90
75210;DHT22;63796;53.136;14.882;2024-02-14T03:45:15;3.10;99.90
75210;DHT22;63796;53.136;14.882;2024-02-14T03:48:22;3.10;99.90
75210;DHT22;63796;53.136;14.882;2024-02-14T03:51:30;3.10;99.90
75210;DHT22;63796;53.136;14.882;2024-02-14T03:54:37;3.20;99.90
75210;DHT22;63796;53.136;14.882;2024-02-14T03:57:44;3.30;99.90
75210;DHT22;63796;53.136;14.882;2024-02-14T04:00:51;3.30;99.90
75210;DHT22;63796;53.136;14.882;2024-02-14T04:04:01;3.20;99.90
75210;DHT22;63796;53.136;14.882;2024-02-14T04:07:08;3.30;99.90
75210;DHT22;63796;53.136;14.882;2024-02-14T04:10:16;3.30;99.90
75210;DHT22;63796;53.136;14.882;2024-02-14T04:13:23;3.30;99.90
75210;DHT22;63796;53.136;14.882;2024-02-14T04:16:31;3.10;99.90
75210;DHT22;63796;53.136;14.882;2024-02-14T04:19:38;3.10;99.90
75210;DHT22;63796;53.136;14.882;2024-02-14T04:22:45;3.20;99.90
75210;DHT22;63796;53.136;14.882;2024-02-14T04:25:52;3.10;99.90
75210;DHT22;63796;53.136;14.882;2024-02-14T04:29:00;3.10;99.90
75210;DHT22;63796;53.136;14.882;2024-02-14T04:32:08;3.00;99.90
75210;DHT22;63796;53.136;14.882;2024-02-14T04:35:15;3.00;99.90
75210;DHT22;63796;53.136;14.882;2024-02-14T04:38:23;3.10;99.90
75210;DHT22;63796;53.136;14.882;2024-02-14T04:41:30;3.10;99.90
75210;DHT22;63796;53.136;14.882;2024-02-14T04:44:47;3.10;99.90
75210;DHT22;63796;53.136;14.882;2024-02-14T04:47:55;3.30;99.90
75210;DHT22;63796;53.136;14.882;2024-02-14T04:51:03;3.10;99.90
75210;DHT22;63796;53.136;14.882;2024-02-14T04:54:11;2.90;99.90
75210;DHT22;63796;53.136;14.882;2024-02-14T04:57:18;2.90;99.90
75210;DHT22;63796;53.136;14.882;2024-02-14T05:00:26;3.10;99.90
75210;DHT22;63796;53.136;14.882;2024-02-14T05:03:33;3.10;99.90
75210;DHT22;63796;53.136;14.882;2024-02-14T05:06:43;3.10;99.90
75210;DHT22;63796;53.136;14.882;2024-02-14T05:09:50;3.00;99.90
75210;DHT22;63796;53.136;14.882;2024-02-14T05:12:58;3.10;99.90
75210;DHT22;63796;53.136;14.882;2024-02-14T05:16:05;3.20;99.90
75210;DHT22;63796;53.136;14.882;2024-02-14T05:19:15;3.20;99.90
75210;DHT22;63796;53.136;14.882;2024-02-14T05:21:43;3.30;99.90
75210;DHT22;63796;53.136;14.882;2024-02-14T05:24:52;3.50;99.90
75210;DHT22;63796;53.136;14.882;2024-02-14T05:27:59;3.60;99.90
75210;DHT22;63796;53.136;14.882;2024-02-14T05:31:09;3.50;99.90
75210;DHT22;63796;53.136;14.882;2024-02-14T05:34:17;3.50;99.90
75210;DHT22;63796;53.136;14.882;2024-02-14T05:37:24;3.60;99.90
75210;DHT22;63796;53.136;14.882;2024-02-14T05:40:32;3.50;99.90
75210;DHT22;63796;53.136;14.882;2024-02-14T05:43:39;3.70;99.90
75210;DHT22;63796;53.136;14.882;2024-02-14T05:46:46;3.60;99.90
75210;DHT22;63796;53.136;14.882;2024-02-14T05:49:54;3.40;99.90
75210;DHT22;63796;53.136;14.882;2024-02-14T05:53:03;3.40;99.90
75210;DHT22;63796;53.136;14.882;2024-02-14T05:56:11;3.50;99.90
75210;DHT22;63796;53.136;14.882;2024-02-14T05:59:18;3.60;99.90
75210;DHT22;63796;53.136;14.882;2024-02-14T06:02:26;3.60;99.90
75210;DHT22;63796;53.136;14.882;2024-02-14T06:05:34;3.70;99.90
75210;DHT22;63796;53.136;14.882;2024-02-14T06:08:41;3.80;99.90
75210;DHT22;63796;53.136;14.882;2024-02-14T06:11:49;3.80;99.90
75210;DHT22;63796;53.136;14.882;2024-02-14T06:14:56;3.70;99.90
75210;DHT22;63796;53.136;14.882;2024-02-14T06:18:03;3.70;99.90
75210;DHT22;63796;53.136;14.882;2024-02-14T06:21:11;3.60;99.90
75210;DHT22;63796;53.136;14.882;2024-02-14T06:24:18;3.50;99.90
75210;DHT22;63796;53.136;14.882;2024-02-14T06:27:26;3.60;99.90
75210;DHT22;63796;53.136;14.882;2024-02-14T06:30:29;3.60;99.90
75210;DHT22;63796;53.136;14.882;2024-02-14T06:33:36;3.60;99.90
75210;DHT22;63796;53.136;14.882;2024-02-14T06:36:43;3.50;99.90
75210;DHT22;63796;53.136;14.882;2024-02-14T06:39:51;3.50;99.90
75210;DHT22;63796;53.136;14.882;2024-02-14T06:42:58;3.40;99.90
75210;DHT22;63796;53.136;14.882;2024-02-14T06:45:28;3.50;99.90
75210;DHT22;63796;53.136;14.882;2024-02-14T06:48:35;3.50;99.90
75210;DHT22;63796;53.136;14.882;2024-02-14T06:51:44;3.50;99.90
75210;DHT22;63796;53.136;14.882;2024-02-14T06:54:31;3.60;99.90
75210;DHT22;63796;53.136;14.882;2024-02-14T06:57:39;3.50;99.90
75210;DHT22;63796;53.136;14.882;2024-02-14T07:00:46;3.60;99.90
75210;DHT22;63796;53.136;14.882;2024-02-14T07:03:53;3.60;99.90
75210;DHT22;63796;53.136;14.882;2024-02-14T07:07:01;3.60;99.90
75210;DHT22;63796;53.136;14.882;2024-02-14T07:10:10;3.50;99.90
75210;DHT22;63796;53.136;14.882;2024-02-14T07:13:18;3.50;99.90
75210;DHT22;63796;53.136;14.882;2024-02-14T07:16:25;3.60;99.90
75210;DHT22;63796;53.136;14.882;2024-02-14T07:19:32;3.80;99.90
75210;DHT22;63796;53.136;14.882;2024-02-14T07:22:40;3.70;99.90
75210;DHT22;63796;53.136;14.882;2024-02-14T07:25:47;3.70;99.90
75210;DHT22;63796;53.136;14.882;2024-02-14T07:28:55;3.80;99.90
75210;DHT22;63796;53.136;14.882;2024-02-14T07:32:02;3.90;99.90
75210;DHT22;63796;53.136;14.882;2024-02-14T07:35:10;3.80;99.90
75210;DHT22;63796;53.136;14.882;2024-02-14T07:38:18;3.80;99.90
75210;DHT22;63796;53.136;14.882;2024-02-14T07:41:25;3.80;99.90
75210;DHT22;63796;53.136;14.882;2024-02-14T07:44:32;3.90;99.90
75210;DHT22;63796;53.136;14.882;2024-02-14T07:47:40;4.00;99.90
75210;DHT22;63796;53.136;14.882;2024-02-14T07:50:48;4.00;99.90
75210;DHT22;63796;53.136;14.882;2024-02-14T07:53:55;4.00;99.90
75210;DHT22;63796;53.136;14.882;2024-02-14T07:56:23;4.00;99.90
75210;DHT22;63796;53.136;14.882;2024-02-14T07:59:30;4.00;99.90
75210;DHT22;63796;53.136;14.882;2024-02-14T08:02:37;4.00;99.90
75210;DHT22;63796;53.136;14.882;2024-02-14T08:05:45;4.00;99.90
75210;DHT22;63796;53.136;14.882;2024-02-14T08:08:53;3.90;99.90
75210;DHT22;63796;53.136;14.882;2024-02-14T08:12:00;3.90;99.90
75210;DHT22;63796;53.136;14.882;2024-02-14T08:15:07;3.90;99.90
75210;DHT22;63796;53.136;14.882;2024-02-14T08:18:15;3.80;99.90
75210;DHT22;63796;53.136;14.882;2024-02-14T08:21:22;3.70;99.90
75210;DHT22;63796;53.136;14.882;2024-02-14T08:24:30;3.60;99.90
75210;DHT22;63796;53.136;14.882;2024-02-14T08:27:37;3.60;99.90
75210;DHT22;63796;53.136;14.882;2024-02-14T08:30:45;3.60;99.90
75210;DHT22;63796;53.136;14.882;2024-02-14T08:33:52;3.50;99.90
75210;DHT22;63796;53.136;14.882;2024-02-14T08:37:00;3.60;99.90
75210;DHT22;63796;53.136;14.882;2024-02-14T08:40:07;3.50;99.90
75210;DHT22;63796;53.136;14.882;2024-02-14T08:43:17;3.50;99.90
75210;DHT22;63796;53.136;14.882;2024-02-14T08:46:24;3.50;99.90
75210;DHT22;63796;53.136;14.882;2024-02-14T08:49:32;3.60;99.90
75210;DHT22;63796;53.136;14.882;2024-02-14T08:52:39;3.70;99.90
75210;DHT22;63796;53.136;14.882;2024-02-14T08:55:46;3.60;99.90
75210;DHT22;63796;53.136;14.882;2024-02-14T08:58:54;3.70;99.90
75210;DHT22;63796;53.136;14.882;2024-02-14T09:02:01;3.60;99.90
75210;DHT22;63796;53.136;14.882;2024-02-14T09:05:08;3.70;99.90
75210;DHT22;63796;53.136;14.882;2024-02-14T09:08:18;3.80;99.90
75210;DHT22;63796;53.136;14.882;2024-02-14T09:11:25;3.60;99.90
75210;DHT22;63796;53.136;14.882;2024-02-14T09:14:33;3.80;99.90
75210;DHT22;63796;53.136;14.882;2024-02-14T09:17:40;3.60;99.90
75210;DHT22;63796;53.136;14.882;2024-02-14T09:20:48;3.80;99.90
75210;DHT22;63796;53.136;14.882;2024-02-14T09:23:56;3.70;99.90
75210;DHT22;63796;53.136;14.882;2024-02-14T09:27:05;3.70;99.90
75210;DHT22;63796;53.136;14.882;2024-02-14T09:30:13;3.50;99.90
75210;DHT22;63796;53.136;14.882;2024-02-14T09:33:25;3.70;99.90
75210;DHT22;63796;53.136;14.882;2024-02-14T09:36:32;3.70;99.90
75210;DHT22;63796;53.136;14.882;2024-02-14T09:39:40;3.70;99.90
75210;DHT22;63796;53.136;14.882;2024-02-14T09:42:53;3.80;99.90
75210;DHT22;63796;53.136;14.882;2024-02-14T09:46:01;3.90;99.90
75210;DHT22;63796;53.136;14.882;2024-02-14T09:49:09;4.00;99.90
75210;DHT22;63796;53.136;14.882;2024-02-14T09:52:18;4.00;99.90
75210;DHT22;63796;53.136;14.882;2024-02-14T09:55:27;3.90;99.90
75210;DHT22;63796;53.136;14.882;2024-02-14T09:58:35;3.80;99.90
75210;DHT22;63796;53.136;14.882;2024-02-14T10:01:42;3.80;99.90
75210;DHT22;63796;53.136;14.882;2024-02-14T10:04:50;3.90;99.90
75210;DHT22;63796;53.136;14.882;2024-02-14T10:07:57;3.80;99.90
75210;DHT22;63796;53.136;14.882;2024-02-14T10:11:05;4.10;99.90
75210;DHT22;63796;53.136;14.882;2024-02-14T10:14:12;4.00;99.90
75210;DHT22;63796;53.136;14.882;2024-02-14T10:17:20;4.10;99.90
75210;DHT22;63796;53.136;14.882;2024-02-14T10:20:27;4.20;99.90
75210;DHT22;63796;53.136;14.882;2024-02-14T10:23:35;4.30;99.90
75210;DHT22;63796;53.136;14.882;2024-02-14T10:26:43;4.50;99.90
75210;DHT22;63796;53.136;14.882;2024-02-14T10:29:50;4.50;99.90
75210;DHT22;63796;53.136;14.882;2024-02-14T10:32:58;4.60;99.90
75210;DHT22;63796;53.136;14.882;2024-02-14T10:36:13;4.40;99.90
75210;DHT22;63796;53.136;14.882;2024-02-14T10:39:21;4.60;99.90
75210;DHT22;63796;53.136;14.882;2024-02-14T10:42:32;4.60;99.90
75210;DHT22;63796;53.136;14.882;2024-02-14T10:45:40;4.60;99.90
75210;DHT22;63796;53.136;14.882;2024-02-14T10:48:47;4.60;99.90
75210;DHT22;63796;53.136;14.882;2024-02-14T10:52:00;4.70;99.90
75210;DHT22;63796;53.136;14.882;2024-02-14T10:55:09;4.50;99.90
75210;DHT22;63796;53.136;14.882;2024-02-14T10:58:18;4.60;99.90
75210;DHT22;63796;53.136;14.882;2024-02-14T11:01:29;4.50;99.90
75210;DHT22;63796;53.136;14.882;2024-02-14T11:04:37;4.50;99.90
75210;DHT22;63796;53.136;14.882;2024-02-14T11:07:47;4.60;99.90
75210;DHT22;63796;53.136;14.882;2024-02-14T11:10:55;4.70;99.90
75210;DHT22;63796;53.136;14.882;2024-02-14T11:14:03;4.80;99.90
75210;DHT22;63796;53.136;14.882;2024-02-14T11:17:13;4.70;99.90
75210;DHT22;63796;53.136;14.882;2024-02-14T11:20:30;5.00;99.90
75210;DHT22;63796;53.136;14.882;2024-02-14T11:23:38;5.10;99.90
75210;DHT22;63796;53.136;14.882;2024-02-14T11:30:33;4.90;99.90
75210;DHT22;63796;53.136;14.882;2024-02-14T11:33:41;4.90;99.90
75210;DHT22;63796;53.136;14.882;2024-02-14T11:36:49;4.90;99.90
75210;DHT22;63796;53.136;14.882;2024-02-14T11:39:58;4.90;99.90
75210;DHT22;63796;53.136;14.882;2024-02-14T11:43:15;4.90;99.90
75210;DHT22;63796;53.136;14.882;2024-02-14T11:46:26;5.00;99.90
75210;DHT22;63796;53.136;14.882;2024-02-14T11:49:33;4.90;99.90
75210;DHT22;63796;53.136;14.882;2024-02-14T11:52:42;4.90;99.90
75210;DHT22;63796;53.136;14.882;2024-02-14T11:55:50;5.00;99.90
75210;DHT22;63796;53.136;14.882;2024-02-14T11:58:58;5.30;99.90
75210;DHT22;63796;53.136;14.882;2024-02-14T12:02:07;5.50;99.90
75210;DHT22;63796;53.136;14.882;2024-02-14T12:05:15;5.50;99.90
75210;DHT22;63796;53.136;14.882;2024-02-14T12:08:23;5.50;99.90
75210;DHT22;63796;53.136;14.882;2024-02-14T12:11:31;5.40;99.90
75210;DHT22;63796;53.136;14.882;2024-02-14T12:14:45;5.40;99.90
75210;DHT22;63796;53.136;14.882;2024-02-14T12:17:54;5.70;99.90
75210;DHT22;63796;53.136;14.882;2024-02-14T12:21:05;5.60;99.90
75210;DHT22;63796;53.136;14.882;2024-02-14T12:24:16;5.60;99.90
75210;DHT22;63796;53.136;14.882;2024-02-14T12:27:23;5.50;99.90
75210;DHT22;63796;53.136;14.882;2024-02-14T12:30:44;5.60;99.90
75210;DHT22;63796;53.136;14.882;2024-02-14T12:33:53;5.80;99.90
75210;DHT22;63796;53.136;14.882;2024-02-14T12:37:01;5.80;99.90
75210;DHT22;63796;53.136;14.882;2024-02-14T12:40:08;5.70;99.90
75210;DHT22;63796;53.136;14.882;2024-02-14T12:43:17;5.90;99.90
75210;DHT22;63796;53.136;14.882;2024-02-14T12:46:24;5.80;99.90
75210;DHT22;63796;53.136;14.882;2024-02-14T12:49:32;6.00;99.90
75210;DHT22;63796;53.136;14.882;2024-02-14T12:52:39;6.00;99.90
75210;DHT22;63796;53.136;14.882;2024-02-14T12:55:47;6.10;99.90
75210;DHT22;63796;53.136;14.882;2024-02-14T12:58:54;6.10;99.90
75210;DHT22;63796;53.136;14.882;2024-02-14T13:02:01;6.10;99.90
75210;DHT22;63796;53.136;14.882;2024-02-14T13:05:09;6.10;99.90
75210;DHT22;63796;53.136;14.882;2024-02-14T13:08:17;6.20;99.90
75210;DHT22;63796;53.136;14.882;2024-02-14T13:11:24;6.20;99.90
75210;DHT22;63796;53.136;14.882;2024-02-14T13:14:32;6.20;99.90
75210;DHT22;63796;53.136;14.882;2024-02-14T13:17:39;6.40;99.90
75210;DHT22;63796;53.136;14.882;2024-02-14T13:20:49;6.30;99.90
75210;DHT22;63796;53.136;14.882;2024-02-14T13:23:56;6.50;99.90
75210;DHT22;63796;53.136;14.882;2024-02-14T13:27:04;6.40;99.90
75210;DHT22;63796;53.136;14.882;2024-02-14T13:30:12;6.50;99.90
75210;DHT22;63796;53.136;14.882;2024-02-14T13:33:24;6.50;99.90
75210;DHT22;63796;53.136;14.882;2024-02-14T13:36:32;6.40;99.90
75210;DHT22;63796;53.136;14.882;2024-02-14T13:39:39;6.40;99.90
75210;DHT22;63796;53.136;14.882;2024-02-14T13:42:46;6.50;99.90
75210;DHT22;63796;53.136;14.882;2024-02-14T13:45:54;6.60;99.90
75210;DHT22;63796;53.136;14.882;2024-02-14T13:49:02;6.60;99.90
75210;DHT22;63796;53.136;14.882;2024-02-14T13:52:10;6.50;99.90
75210;DHT22;63796;53.136;14.882;2024-02-14T13:55:17;6.60;99.90
75210;DHT22;63796;53.136;14.882;2024-02-14T13:58:26;6.50;99.90
75210;DHT22;63796;53.136;14.882;2024-02-14T14:01:33;6.60;99.90
75210;DHT22;63796;53.136;14.882;2024-02-14T14:04:40;6.60;99.90
75210;DHT22;63796;53.136;14.882;2024-02-14T14:07:48;6.50;99.90
75210;DHT22;63796;53.136;14.882;2024-02-14T14:10:55;6.50;99.90
75210;DHT22;63796;53.136;14.882;2024-02-14T14:14:02;6.40;99.90
75210;DHT22;63796;53.136;14.882;2024-02-14T14:17:10;6.30;99.90
75210;DHT22;63796;53.136;14.882;2024-02-14T14:20:18;6.50;99.90
75210;DHT22;63796;53.136;14.882;2024-02-14T14:23:25;6.40;99.90
75210;DHT22;63796;53.136;14.882;2024-02-14T14:26:32;6.50;99.90
75210;DHT22;63796;53.136;14.882;2024-02-14T14:29:40;6.50;99.90
75210;DHT22;63796;53.136;14.882;2024-02-14T14:32:48;6.60;99.90
75210;DHT22;63796;53.136;14.882;2024-02-14T14:35:56;6.50;99.90
75210;DHT22;63796;53.136;14.882;2024-02-14T14:39:03;6.40;99.90
75210;DHT22;63796;53.136;14.882;2024-02-14T14:42:12;6.40;99.90
75210;DHT22;63796;53.136;14.882;2024-02-14T14:45:19;6.50;99.90
75210;DHT22;63796;53.136;14.882;2024-02-14T14:48:27;6.50;99.90
75210;DHT22;63796;53.136;14.882;2024-02-14T14:51:34;6.50;99.90
75210;DHT22;63796;53.136;14.882;2024-02-14T14:54:42;6.50;99.90
75210;DHT22;63796;53.136;14.882;2024-02-14T14:57:49;6.50;99.90
75210;DHT22;63796;53.136;14.882;2024-02-14T15:00:59;6.50;99.90
75210;DHT22;63796;53.136;14.882;2024-02-14T15:04:07;6.40;99.90
75210;DHT22;63796;53.136;14.882;2024-02-14T15:07:15;6.40;99.90
75210;DHT22;63796;53.136;14.882;2024-02-14T15:10:22;6.40;99.90
75210;DHT22;63796;53.136;14.882;2024-02-14T15:13:29;6.40;99.90
75210;DHT22;63796;53.136;14.882;2024-02-14T15:16:36;6.40;99.90
75210;DHT22;63796;53.136;14.882;2024-02-14T15:19:44;6.40;99.90
75210;DHT22;63796;53.136;14.882;2024-02-14T15:22:51;6.40;99.90
75210;DHT22;63796;53.136;14.882;2024-02-14T15:25:58;6.40;99.90
75210;DHT22;63796;53.136;14.882;2024-02-14T15:29:11;6.40;99.90
75210;DHT22;63796;53.136;14.882;2024-02-14T15:32:22;6.40;99.90
75210;DHT22;63796;53.136;14.882;2024-02-14T15:35:28;6.40;99.90
75210;DHT22;63796;53.136;14.882;2024-02-14T15:38:35;6.40;99.90
75210;DHT22;63796;53.136;14.882;2024-02-14T15:41:42;6.50;99.90
75210;DHT22;63796;53.136;14.882;2024-02-14T15:44:50;6.50;99.90
75210;DHT22;63796;53.136;14.882;2024-02-14T15:47:57;6.60;99.90
75210;DHT22;63796;53.136;14.882;2024-02-14T15:51:07;6.50;99.90
75210;DHT22;63796;53.136;14.882;2024-02-14T15:53:34;6.50;99.90
75210;DHT22;63796;53.136;14.882;2024-02-14T15:56:22;6.50;99.90
75210;DHT22;63796;53.136;14.882;2024-02-14T16:00:09;6.50;99.90
75210;DHT22;63796;53.136;14.882;2024-02-14T16:03:57;6.60;99.90
75210;DHT22;63796;53.136;14.882;2024-02-14T16:07:44;6.60;99.90
75210;DHT22;63796;53.136;14.882;2024-02-14T16:11:31;6.70;99.90
75210;DHT22;63796;53.136;14.882;2024-02-14T16:15:18;6.70;99.90
75210;DHT22;63796;53.136;14.882;2024-02-14T16:19:05;6.70;99.90
75210;DHT22;63796;53.136;14.882;2024-02-14T16:22:12;6.70;99.90
75210;DHT22;63796;53.136;14.882;2024-02-14T16:25:20;6.70;99.90
75210;DHT22;63796;53.136;14.882;2024-02-14T16:28:27;6.70;99.90
75210;DHT22;63796;53.136;14.882;2024-02-14T16:31:37;6.70;99.90
75210;DHT22;63796;53.136;14.882;2024-02-14T16:34:44;6.70;99.90
75210;DHT22;63796;53.136;14.882;2024-02-14T16:37:58;6.70;99.90
75210;DHT22;63796;53.136;14.882;2024-02-14T16:41:05;6.70;99.90
75210;DHT22;63796;53.136;14.882;2024-02-14T16:44:13;6.80;99.90
75210;DHT22;63796;53.136;14.882;2024-02-14T16:47:20;6.80;99.90
75210;DHT22;63796;53.136;14.882;2024-02-14T16:50:28;6.80;99.90
75210;DHT22;63796;53.136;14.882;2024-02-14T16:53:35;6.80;99.90
75210;DHT22;63796;53.136;14.882;2024-02-14T16:56:43;6.80;99.90
75210;DHT22;63796;53.136;14.882;2024-02-14T16:59:50;6.80;99.90
75210;DHT22;63796;53.136;14.882;2024-02-14T17:02:58;6.90;99.90
75210;DHT22;63796;53.136;14.882;2024-02-14T17:06:07;6.90;99.90
75210;DHT22;63796;53.136;14.882;2024-02-14T17:09:15;6.90;99.90
75210;DHT22;63796;53.136;14.882;2024-02-14T17:12:22;6.90;99.90
75210;DHT22;63796;53.136;14.882;2024-02-14T17:16:09;6.90;99.90
75210;DHT22;63796;53.136;14.882;2024-02-14T17:19:17;6.90;99.90
75210;DHT22;63796;53.136;14.882;2024-02-14T17:22:25;6.90;99.90
75210;DHT22;63796;53.136;14.882;2024-02-14T17:25:32;6.90;99.90
75210;DHT22;63796;53.136;14.882;2024-02-14T17:28:40;7.00;99.90
75210;DHT22;63796;53.136;14.882;2024-02-14T17:31:47;7.00;99.90
75210;DHT22;63796;53.136;14.882;2024-02-14T17:35:09;7.00;99.90
75210;DHT22;63796;53.136;14.882;2024-02-14T17:38:16;7.00;99.90
75210;DHT22;63796;53.136;14.882;2024-02-14T17:41:26;7.10;99.90
75210;DHT22;63796;53.136;14.882;2024-02-14T17:44:34;7.10;99.90
75210;DHT22;63796;53.136;14.882;2024-02-14T17:47:41;7.10;99.90
75210;DHT22;63796;53.136;14.882;2024-02-14T17:50:48;7.00;99.90
75210;DHT22;63796;53.136;14.882;2024-02-14T17:53:56;7.10;99.90
75210;DHT22;63796;53.136;14.882;2024-02-14T17:57:03;7.10;99.90
75210;DHT22;63796;53.136;14.882;2024-02-14T18:00:11;7.10;99.90
75210;DHT22;63796;53.136;14.882;2024-02-14T18:03:19;7.10;99.90
75210;DHT22;63796;53.136;14.882;2024-02-14T18:06:26;7.10;99.90
75210;DHT22;63796;53.136;14.882;2024-02-14T18:09:34;7.20;99.90
75210;DHT22;63796;53.136;14.882;2024-02-14T18:12:44;7.20;99.90
75210;DHT22;63796;53.136;14.882;2024-02-14T18:15:51;7.20;99.90
75210;DHT22;63796;53.136;14.882;2024-02-14T18:19:01;7.20;99.90
75210;DHT22;63796;53.136;14.882;2024-02-14T18:22:08;7.20;99.90
75210;DHT22;63796;53.136;14.882;2024-02-14T18:25:15;7.30;99.90
75210;DHT22;63796;53.136;14.882;2024-02-14T18:28:23;7.30;99.90
75210;DHT22;63796;53.136;14.882;2024-02-14T18:31:31;7.30;99.90
75210;DHT22;63796;53.136;14.882;2024-02-14T18:34:38;7.30;99.90
75210;DHT22;63796;53.136;14.882;2024-02-14T18:37:45;7.40;99.90
75210;DHT22;63796;53.136;14.882;2024-02-14T18:40:53;7.40;99.90
75210;DHT22;63796;53.136;14.882;2024-02-14T18:44:01;7.40;99.90
75210;DHT22;63796;53.136;14.882;2024-02-14T18:47:08;7.40;99.90
75210;DHT22;63796;53.136;14.882;2024-02-14T18:50:16;7.50;99.90
75210;DHT22;63796;53.136;14.882;2024-02-14T18:53:23;7.50;99.90
75210;DHT22;63796;53.136;14.882;2024-02-14T18:56:30;7.50;99.90
75210;DHT22;63796;53.136;14.882;2024-02-14T18:59:38;7.50;99.90
75210;DHT22;63796;53.136;14.882;2024-02-14T19:02:46;7.50;99.90
75210;DHT22;63796;53.136;14.882;2024-02-14T19:05:53;7.60;99.90
75210;DHT22;63796;53.136;14.882;2024-02-14T19:09:01;7.60;99.90
75210;DHT22;63796;53.136;14.882;2024-02-14T19:12:11;7.50;99.90
75210;DHT22;63796;53.136;14.882;2024-02-14T19:15:19;7.50;99.90
75210;DHT22;63796;53.136;14.882;2024-02-14T19:18:26;7.60;99.90
75210;DHT22;63796;53.136;14.882;2024-02-14T19:21:36;7.60;99.90
75210;DHT22;63796;53.136;14.882;2024-02-14T19:24:43;7.60;99.90
75210;DHT22;63796;53.136;14.882;2024-02-14T19:27:50;7.60;99.90
75210;DHT22;63796;53.136;14.882;2024-02-14T19:30:57;7.70;99.90
75210;DHT22;63796;53.136;14.882;2024-02-14T19:34:07;7.70;99.90
75210;DHT22;63796;53.136;14.882;2024-02-14T19:37:14;7.80;99.90
75210;DHT22;63796;53.136;14.882;2024-02-14T19:40:22;7.80;99.90
75210;DHT22;63796;53.136;14.882;2024-02-14T19:43:29;7.80;99.90
75210;DHT22;63796;53.136;14.882;2024-02-14T19:46:36;7.90;99.90
75210;DHT22;63796;53.136;14.882;2024-02-14T19:49:43;8.00;99.90